Airfield :
LOGIN :

Register | Disclaimer

   EN    FR    IT 

 










Legend :    VFR   Marginal VFR   IFR   Intensive IFR   Very Intensive IFR
Visi :
Ceiling :
>= 8 km
>= 3000ft
5 to 8 km
1000 to 3000 ft
1500m to 5 km
500 to 1000 ft
800 to 1500m
200 to 500 ft
< 800m
< 200 ft
Symbols :   Thunderstorms  Fog  Heavy snow  Heavy precipitations  Wind > 20 kt
SIGMETs :     Misc.  Thunderstorms  Icing  Turbulence  Mountain Waves  Volcanic Ashes






- Airport Elevation : 390 ft
- IATA code : NQY


EGHQ - Newquay

CURRENT METAR :
  • 080550Z AUTO 01005KT 9999 SCT036/// 10/05 Q1024

EXPIRED METARs :
  • 080520Z AUTO 36004KT 9999 OVC034/// 10/05 Q1024
  • 080450Z AUTO 33004KT 9999 OVC036/// 10/05 Q1024
  • 080420Z AUTO 34005KT 300V110 9999 OVC035/// 10/03 Q1024
  • 080350Z AUTO 13006KT 9999 OVC035/// 11/02 Q1024
  • 080320Z AUTO 13005KT 9999 OVC036/// 11/02 Q1025

TAF TAF EGHQ
Valid from the 08 at 06:00 until the 08 at 15:00 UTC


080455Z 0806/0815 03005KT 9999 SCT035



MET'MAP, your aeronautical weather chart ! - Copyright ORBIFLY December 2007 - Disclaimer

ORBIFLY MET'MAP TEAM :

Programming & Development : Alexandra Zaïnal
Concept & original design : Baudouin d'Aumeries
Assistance for programming : Marc-Olivier Méhu
Technical & hardware support : Manuel Goepfert

Contact : metmap@orbifly.com




SOURCES & CREDITS :

   NOAA